Crumlin, United Kingdom
Current Conditions -  °F | °C
As of 3:50 AM on Sunday 23 Nov 2014 (Local Time) from EGAA Reporting Station
Clear Clear  
Wind Chill: 30°   Ceiling: Unl
Heat Index: 37°   Visibility: 6mi
Dew Point: 37°   Wind: 10mph
Humidity: 100%   Direction: 240°WSW
Pressure: 30.03"   Gusts: NA
Location:  54.62°N, 6.22°W
Report Text: EGAA 230350Z AUTO 24009KT 9999 NCD 03/03 Q1017
Loading
Personal Weather Stations






























Interactive Weather Map New forecast layout! Learn more

10-Day Weather Forecast

Advertisements
Track Severe Weather on mobile